Terminal Aerodrome Forecast
Issued by NWS Sioux Falls, SD

Home | Current Version | Previous Version | Text Only | Print | Product List | Glossary On
Versions: 1 2 3 4 5 6 7 8 9 10 11 12 13 14 15 16
000
FTUS43 KFSD 240942 AAB
TAFFSD
TAF AMD
KFSD 240942Z 2410/2506 17009KT P6SM SCT070 BKN120 WS015/19040KT
     FM241030 17009KT P6SM VCSH BKN070
      TEMPO 2411/2413 5SM TSRA SCT035 BKN050CB
     FM241400 18011KT P6SM FEW070 BKN250
     FM241700 18014G22KT P6SM SCT050 SCT100
     FM242300 18013G20KT P6SM VCTS BKN050CB
     FM250300 17011KT P6SM BKN050=

USA.gov is the U.S. government's official web portal to all federal, state and local government web resources and services.